^^
Your Local Weather - Clay, NY Station Historical Data
Daily Summary for February 23, 2018 Units:  Metric    English   Both
« Previous Day
Next Day »
Daily Weekly Monthly Yearly Custom
  High: Low: Average:
Temperature: 8.9 °C -1.4 °C 2.5 °C
Dew Point: 6.6 °C -2.6 °C 0.8 °C
Humidity: 93% 83% 89%
Wind Speed: 16.1km/h 0km/h 4.7km/h
Wind Gust: 24.1km/h - -
Wind- - SE
Pressure: 1037.8 hPa 1017.2 hPa -
Precipitation: 2.03 mm    
Historical Graphs
 
 
Tabular Data for February 23, 2018
Time Temperature Dew Point Pressure Wind Wind Speed Wind Gust Humidity Rainfall Rate (Hourly) solar
00:00 0 °C -1 °C 1037.8 hPa Calm     93% 0 mm 0 W/m2
00:06 0 °C -1 °C 1037.8 hPa Calm     93% 0 mm 0 W/m2
00:12 0 °C -1 °C 1037.8 hPa Calm     93% 0 mm 0 W/m2
00:18 0 °C -1 °C 1037.5 hPa Calm   3.2 km/h 93% 0 mm 0 W/m2
00:24 0 °C -1 °C 1037.5 hPa Calm   3.2 km/h 93% 0 mm 0 W/m2
00:30 0 °C -1 °C 1037.5 hPa NE 1.6 km/h 4.8 km/h 93% 0 mm 0 W/m2
00:36 0 °C -1 °C 1037.5 hPa NE 1.6 km/h 4.8 km/h 93% 0 mm 0 W/m2
00:42 0.1 °C -0.9 °C 1037.5 hPa NE 1.6 km/h 3.2 km/h 93% 0 mm 0 W/m2
00:48 0.1 °C -0.9 °C 1037.5 hPa NE 1.6 km/h 3.2 km/h 93% 0 mm 0 W/m2
00:54 0.1 °C -0.9 °C 1037.5 hPa East 1.6 km/h 8 km/h 93% 0 mm 0 W/m2
01:00 0.1 °C -0.9 °C 1037.5 hPa East 3.2 km/h 4.8 km/h 93% 0 mm 0 W/m2
01:06 -0.1 °C -1.1 °C 1037.1 hPa East 3.2 km/h 4.8 km/h 93% 0 mm 0 W/m2
01:12 -0.1 °C -1.1 °C 1037.1 hPa ESE 3.2 km/h 3.2 km/h 93% 0 mm 0 W/m2
01:18 -0.2 °C -1.2 °C 1036.8 hPa East 3.2 km/h 4.8 km/h 93% 0 mm 0 W/m2
01:24 -0.2 °C -1.2 °C 1036.5 hPa ENE 3.2 km/h 3.2 km/h 93% 0 mm 0 W/m2
01:30 -0.2 °C -1.2 °C 1036.5 hPa ENE 3.2 km/h 6.4 km/h 93% 0 mm 0 W/m2
01:36 -0.3 °C -1.3 °C 1036.5 hPa ESE 3.2 km/h 6.4 km/h 93% 0 mm 0 W/m2
01:42 -0.4 °C -1.4 °C 1036.5 hPa East 1.6 km/h 3.2 km/h 93% 0 mm 0 W/m2
01:48 -0.4 °C -1.4 °C 1036.5 hPa ENE 1.6 km/h 3.2 km/h 93% 0 mm 0 W/m2
01:54 -0.4 °C -1.4 °C 1036.5 hPa ENE 3.2 km/h 3.2 km/h 93% 0 mm 0 W/m2
02:00 -0.4 °C -1.4 °C 1036.5 hPa ENE 1.6 km/h 1.6 km/h 93% 0 mm 0 W/m2
02:06 -0.5 °C -1.5 °C 1036.5 hPa East 1.6 km/h 9.7 km/h 93% 0 mm 0 W/m2
02:12 -0.6 °C -1.6 °C 1036.5 hPa East 3.2 km/h 8 km/h 93% 0 mm 0 W/m2
02:18 -0.6 °C -1.6 °C 1036.5 hPa East 3.2 km/h 8 km/h 93% 0 mm 0 W/m2
02:24 -0.7 °C -1.7 °C 1036.5 hPa NE 3.2 km/h 6.4 km/h 93% 0 mm 0 W/m2
02:30 -0.7 °C -1.7 °C 1036.1 hPa NE 4.8 km/h 4.8 km/h 93% 0 mm 0 W/m2
02:36 -0.8 °C -1.8 °C 1036.1 hPa ENE 4.8 km/h 4.8 km/h 93% 0 mm 0 W/m2
02:42 -0.9 °C -1.9 °C 1036.1 hPa NE 4.8 km/h 4.8 km/h 93% 0 mm 0 W/m2
02:48 -0.9 °C -1.9 °C 1036.1 hPa East 4.8 km/h 4.8 km/h 93% 0 mm 0 W/m2
02:54 -1 °C -2 °C 1036.1 hPa ENE 4.8 km/h 8 km/h 93% 0 mm 0 W/m2
03:00 -1 °C -2 °C 1036.1 hPa NNE 4.8 km/h 8 km/h 93% 0 mm 0 W/m2
03:06 -1 °C -2 °C 1035.8 hPa ENE 4.8 km/h 14.5 km/h 93% 0 mm 0 W/m2
03:12 -1 °C -2 °C 1035.8 hPa East 6.4 km/h 11.3 km/h 93% 0 mm 0 W/m2
03:18 -1.1 °C -2.1 °C 1035.4 hPa East 6.4 km/h 12.9 km/h 93% 0 mm 0 W/m2
03:24 -1.1 °C -2.1 °C 1035.4 hPa East 4.8 km/h 8 km/h 93% 0 mm 0 W/m2
03:30 -1.1 °C -2.1 °C 1035.4 hPa East 4.8 km/h 4.8 km/h 93% 0 mm 0 W/m2
03:36 -1.1 °C -2.1 °C 1035.4 hPa ENE 4.8 km/h 6.4 km/h 93% 0 mm 0 W/m2
03:42 -1.1 °C -2.1 °C 1035.1 hPa SE 6.4 km/h 8 km/h 93% 0 mm 0 W/m2
03:48 -1.1 °C -2.1 °C 1035.1 hPa SE 6.4 km/h 8 km/h 93% 0 mm 0 W/m2
03:54 -1.1 °C -2.1 °C 1035.1 hPa East 4.8 km/h 9.7 km/h 93% 0 mm 0 W/m2
04:00 -1.1 °C -2.1 °C 1034.8 hPa ENE 4.8 km/h 4.8 km/h 93% 0 mm 0 W/m2
04:06 -1.1 °C -2.1 °C 1035.1 hPa SE 3.2 km/h 9.7 km/h 93% 0 mm 0 W/m2
04:12 -1.1 °C -2.1 °C 1035.1 hPa SSE 4.8 km/h 11.3 km/h 93% 0 mm 0 W/m2
04:18 -1.1 °C -2.1 °C 1035.1 hPa SE 4.8 km/h 11.3 km/h 93% 0 mm 0 W/m2
04:24 -1.1 °C -2.1 °C 1035.1 hPa SE 4.8 km/h 8 km/h 93% 0 mm 0 W/m2
04:30 -1.1 °C -2.1 °C 1034.8 hPa NE 4.8 km/h 4.8 km/h 93% 0 mm 0 W/m2
04:36 -1.1 °C -2.2 °C 1034.8 hPa East 4.8 km/h 8 km/h 92% 0 mm 0 W/m2
04:42 -1.2 °C -2.3 °C 1034.4 hPa East 4.8 km/h 11.3 km/h 92% 0 mm 0 W/m2
04:48 -1.3 °C -2.4 °C 1034.4 hPa ENE 4.8 km/h 11.3 km/h 92% 0 mm 0 W/m2
04:54 -1.3 °C -2.4 °C 1034.4 hPa NE 3.2 km/h 11.3 km/h 92% 0 mm 0 W/m2
05:00 -1.4 °C -2.5 °C 1034.1 hPa SE 3.2 km/h 3.2 km/h 92% 0 mm 0 W/m2
05:06 -1.4 °C -2.5 °C 1034.1 hPa SE 3.2 km/h 6.4 km/h 92% 0 mm 0 W/m2
05:12 -1.4 °C -2.6 °C 1034.1 hPa ESE 1.6 km/h 3.2 km/h 92% 0 mm 0 W/m2
05:18 -1.4 °C -2.6 °C 1034.1 hPa ENE 3.2 km/h 3.2 km/h 92% 0 mm 0 W/m2
05:24 -1.4 °C -2.6 °C 1034.1 hPa SE 3.2 km/h 4.8 km/h 92% 0 mm 0 W/m2
05:30 -1.4 °C -2.5 °C 1033.7 hPa ENE 4.8 km/h 4.8 km/h 92% 0 mm 0 W/m2
05:36 -1.3 °C -2.4 °C 1033.7 hPa SSE 4.8 km/h 9.7 km/h 92% 0 mm 0 W/m2
05:42 -1.3 °C -2.6 °C 1033.7 hPa SE 4.8 km/h 9.7 km/h 91% 0 mm 0 W/m2
05:48 -1.2 °C -2.5 °C 1033.4 hPa ENE 6.4 km/h 9.7 km/h 91% 0 mm 0 W/m2
05:54 -1.2 °C -2.4 °C 1033.4 hPa ENE 6.4 km/h 6.4 km/h 91% 0 mm 0 W/m2
06:00 -1.2 °C -2.4 °C 1033.4 hPa East 6.4 km/h 6.4 km/h 91% 0 mm 0 W/m2
06:06 -1.1 °C -2.4 °C 1033.4 hPa SE 4.8 km/h 6.4 km/h 91% 0 mm 0 W/m2
06:12 -1.1 °C -2.6 °C 1033.1 hPa East 4.8 km/h 8 km/h 90% 0 mm 0 W/m2
06:18 -1.1 °C -2.6 °C 1032.7 hPa East 4.8 km/h 12.9 km/h 90% 0 mm 0 W/m2
06:24 -1.1 °C -2.6 °C 1032.7 hPa ENE 4.8 km/h 11.3 km/h 90% 0 mm 0 W/m2
06:30 -1.1 °C -2.6 °C 1032.4 hPa ENE 6.4 km/h 6.4 km/h 90% 0 mm 0 W/m2
06:36 -1.1 °C -2.5 °C 1032.4 hPa ESE 4.8 km/h 8 km/h 90% 0 mm 0 W/m2
06:42 -1 °C -2.6 °C 1032.4 hPa ESE 4.8 km/h 6.4 km/h 89% 0 mm 0 W/m2
06:48 -0.9 °C -2.6 °C 1032.4 hPa ESE 4.8 km/h 8 km/h 89% 0 mm 0 W/m2
06:54 -0.9 °C -2.5 °C 1032.1 hPa ESE 4.8 km/h 6.4 km/h 89% 0 mm 5 W/m2
07:00 -0.8 °C -2.4 °C 1032.1 hPa ESE 6.4 km/h 6.4 km/h 89% 0 mm 5 W/m2
07:06 -0.8 °C -2.5 °C 1032.1 hPa East 6.4 km/h 9.7 km/h 88% 0 mm 12 W/m2
07:12 -0.8 °C -2.5 °C 1032.1 hPa East 6.4 km/h 6.4 km/h 88% 0 mm 19 W/m2
07:18 -0.8 °C -2.5 °C 1032.1 hPa ESE 4.8 km/h 6.4 km/h 88% 0 mm 32 W/m2
07:24 -0.7 °C -2.4 °C 1032.1 hPa East 4.8 km/h 4.8 km/h 88% 0 mm 39 W/m2
07:30 -0.7 °C -2.4 °C 1032.1 hPa ENE 6.4 km/h 6.4 km/h 88% 0 mm 46 W/m2
07:36 -0.6 °C -2.3 °C 1032.1 hPa East 6.4 km/h 6.4 km/h 88% 0 mm 54 W/m2
07:42 -0.5 °C -2.2 °C 1032.1 hPa East 4.8 km/h 9.7 km/h 88% 0 mm 49 W/m2
07:48 -0.4 °C -2.3 °C 1032.1 hPa ENE 4.8 km/h 9.7 km/h 87% 0 mm 51 W/m2
07:54 -0.4 °C -2.3 °C 1031.4 hPa East 4.8 km/h 9.7 km/h 87% 0 mm 60 W/m2
08:00 -0.4 °C -2.3 °C 1031.4 hPa ESE 4.8 km/h 6.4 km/h 87% 0 mm 67 W/m2
08:06 -0.4 °C -2.3 °C 1031 hPa ESE 4.8 km/h 11.3 km/h 87% 0 mm 60 W/m2
08:12 -0.3 °C -2.2 °C 1031.4 hPa ESE 6.4 km/h 8 km/h 87% 0 mm 60 W/m2
08:18 -0.3 °C -2.3 °C 1031.4 hPa East 4.8 km/h 9.7 km/h 86% 0 mm 67 W/m2
08:24 -0.2 °C -2.3 °C 1031 hPa East 6.4 km/h 8 km/h 86% 0 mm 81 W/m2
08:30 -0.1 °C -2.2 °C 1031 hPa East 3.2 km/h 8 km/h 86% 0 mm 77 W/m2
08:36 -0.1 °C -2.2 °C 1030.7 hPa East 4.8 km/h 11.3 km/h 86% 0 mm 88 W/m2
08:42 -0.1 °C -2.1 °C 1030.7 hPa ENE 6.4 km/h 6.4 km/h 86% 0 mm 83 W/m2
08:48 -0.1 °C -2.1 °C 1030.4 hPa East 4.8 km/h 6.4 km/h 86% 0 mm 83 W/m2
08:54 -0.1 °C -2.1 °C 1030 hPa ESE 4.8 km/h 9.7 km/h 86% 0 mm 79 W/m2
09:00 -0.1 °C -2.3 °C 1029.7 hPa ESE 6.4 km/h 12.9 km/h 85% 0 mm 88 W/m2
09:06 -0.1 °C -2.3 °C 1029.7 hPa ENE 4.8 km/h 12.9 km/h 85% 0 mm 81 W/m2
09:12 -0.1 °C -2.5 °C 1029.7 hPa ENE 4.8 km/h 9.7 km/h 84% 0 mm 79 W/m2
09:18 -0.1 °C -2.5 °C 1029.7 hPa ENE 6.4 km/h 9.7 km/h 84% 0 mm 84 W/m2
09:24 -0.1 °C -2.4 °C 1029.3 hPa ENE 6.4 km/h 11.3 km/h 84% 0 mm 86 W/m2
09:30 0 °C -2.4 °C 1029.7 hPa ESE 6.4 km/h 6.4 km/h 84% 0 mm 76 W/m2
09:36 0.1 °C -2.3 °C 1029.7 hPa ENE 4.8 km/h 6.4 km/h 84% 0 mm 95 W/m2
09:42 0.2 °C -2.2 °C 1029.3 hPa ENE 4.8 km/h 4.8 km/h 84% 0 mm 100 W/m2
09:48 0.2 °C -2.2 °C 1029.3 hPa ESE 4.8 km/h 9.7 km/h 84% 0 mm 90 W/m2
09:54 0.3 °C -2.1 °C 1029.3 hPa ESE 4.8 km/h 4.8 km/h 84% 0 mm 102 W/m2
10:00 0.4 °C -2 °C 1029.3 hPa East 3.2 km/h 8 km/h 84% 0 mm 93 W/m2
10:06 0.4 °C -1.9 °C 1029.3 hPa ENE 3.2 km/h 8 km/h 84% 0 mm 70 W/m2
10:12 0.6 °C -1.8 °C 1028.3 hPa East 3.2 km/h 8 km/h 84% 0 mm 125 W/m2
10:18 0.7 °C -1.7 °C 1028.3 hPa ENE 4.8 km/h 8 km/h 84% 0 mm 84 W/m2
10:24 0.6 °C -1.6 °C 1028 hPa ENE 4.8 km/h 8 km/h 85% 0 mm 69 W/m2
10:30 0.4 °C -1.7 °C 1028 hPa ESE 6.4 km/h 6.4 km/h 86% 0 mm 62 W/m2
10:36 0.4 °C -1.7 °C 1028 hPa East 4.8 km/h 6.4 km/h 86% 0 mm 54 W/m2
10:42 0.4 °C -1.4 °C 1027.7 hPa ENE 3.2 km/h 4.8 km/h 87% 0 mm 62 W/m2
10:48 0.6 °C -1.2 °C 1027.3 hPa ENE 3.2 km/h 9.7 km/h 88% 0 mm 67 W/m2
10:54 0.7 °C -1.1 °C 1027 hPa East 3.2 km/h 8 km/h 88% 0 mm 74 W/m2
11:00 0.8 °C -0.8 °C 1026.6 hPa ENE 3.2 km/h 6.4 km/h 89% 0 mm 84 W/m2
11:06 0.8 °C -0.8 °C 1026.6 hPa East 3.2 km/h 9.7 km/h 89% 0 mm 81 W/m2
11:12 0.6 °C -1.1 °C 1026.6 hPa ESE 4.8 km/h 6.4 km/h 89% 0 mm 77 W/m2
11:18 0.6 °C -1.1 °C 1026.6 hPa ENE 4.8 km/h 6.4 km/h 89% 0 mm 90 W/m2
11:24 0.7 °C -0.9 °C 1026 hPa ENE 4.8 km/h 8 km/h 89% 0 mm 132 W/m2
11:30 0.9 °C -0.7 °C 1026 hPa East 4.8 km/h 4.8 km/h 89% 0 mm 118 W/m2
11:36 1.2 °C -0.4 °C 1025.6 hPa NE 4.8 km/h 6.4 km/h 89% 0 mm 83 W/m2
11:42 1.4 °C -0.2 °C 1025.6 hPa NE 4.8 km/h 4.8 km/h 89% 0 mm 79 W/m2
11:48 1.5 °C -0.3 °C 1025.6 hPa ENE 3.2 km/h 4.8 km/h 88% 0 mm 81 W/m2
11:54 1.4 °C -0.3 °C 1025.6 hPa ENE 3.2 km/h 3.2 km/h 88% 0 mm 76 W/m2
12:00 1.3 °C -0.6 °C 1025.6 hPa ENE 3.2 km/h 8 km/h 87% 0 mm 63 W/m2
12:06 1.2 °C -0.8 °C 1025.3 hPa ENE 4.8 km/h 9.7 km/h 87% 0 mm 49 W/m2
12:12 1.1 °C -0.9 °C 1024.9 hPa ESE 4.8 km/h 6.4 km/h 87% 0 mm 51 W/m2
12:18 1 °C -0.9 °C 1024.9 hPa ENE 4.8 km/h 6.4 km/h 87% 0 mm 39 W/m2
12:24 1 °C -0.9 °C 1024.9 hPa NE 3.2 km/h 4.8 km/h 87% 0 mm 28 W/m2
12:30 1.1 °C -0.8 °C 1024.9 hPa NE 1.6 km/h 1.6 km/h 87% 0 mm 32 W/m2
12:36 1.2 °C -0.8 °C 1024.6 hPa Calm   1.6 km/h 87% 0 mm 26 W/m2
12:42 1.4 °C -0.6 °C 1023.9 hPa ESE 1.6 km/h 8 km/h 87% 0 mm 28 W/m2
12:48 2.3 °C 0.5 °C 1023.9 hPa SE 4.8 km/h 8 km/h 88% 0 mm 25 W/m2
12:54 3 °C 1.2 °C 1023.9 hPa SSE 4.8 km/h 12.9 km/h 88% 0 mm 28 W/m2
13:00 3.9 °C 1.7 °C 1023.9 hPa South 9.7 km/h 9.7 km/h 85% 0 mm 35 W/m2
13:06 4 °C 1.4 °C 1023.6 hPa SSE 9.7 km/h 11.3 km/h 83% 0 mm 23 W/m2
13:12 3.9 °C 1.3 °C 1023.6 hPa South 8 km/h 12.9 km/h 83% 0 mm 23 W/m2
13:18 3.9 °C 1.3 °C 1023.2 hPa SSE 11.3 km/h 12.9 km/h 83% 0 mm 25 W/m2
13:24 3.9 °C 1.3 °C 1023.2 hPa SE 9.7 km/h 11.3 km/h 83% 0 mm 30 W/m2
13:30 3.8 °C 1.3 °C 1022.9 hPa SSE 8 km/h 9.7 km/h 84% 0 mm 32 W/m2
13:36 3.8 °C 1.4 °C 1022.6 hPa SSE 9.7 km/h 11.3 km/h 84% 0 mm 28 W/m2
13:42 3.8 °C 1.6 °C 1022.6 hPa SE 9.7 km/h 11.3 km/h 85% 0 mm 23 W/m2
13:48 3.8 °C 1.6 °C 1022.6 hPa SSE 8 km/h 19.3 km/h 85% 0 mm 19 W/m2
13:54 3.8 °C 1.6 °C 1022.2 hPa SE 11.3 km/h 16.1 km/h 85% 0 mm 30 W/m2
14:00 3.9 °C 1.6 °C 1021.9 hPa SSE 12.9 km/h 14.5 km/h 85% 0 mm 25 W/m2
14:06 3.9 °C 1.6 °C 1021.9 hPa SE 14.5 km/h 16.1 km/h 85% 0 mm 25 W/m2
14:12 4 °C 1.7 °C 1021.2 hPa SSW 12.9 km/h 12.9 km/h 85% 0 mm 49 W/m2
14:18 4.2 °C 1.8 °C 1021.2 hPa South 16.1 km/h 19.3 km/h 84% 0 mm 37 W/m2
14:24 4.3 °C 1.7 °C 1021.2 hPa SE 14.5 km/h 16.1 km/h 83% 0 mm 23 W/m2
14:30 4.3 °C 1.7 °C 1021.2 hPa SSE 12.9 km/h 12.9 km/h 83% 0 mm 28 W/m2
14:36 4.3 °C 1.7 °C 1020.9 hPa South 11.3 km/h 24.1 km/h 83% 0 mm 25 W/m2
14:42 4.4 °C 1.8 °C 1020.9 hPa SE 9.7 km/h 9.7 km/h 83% 0 mm 23 W/m2
14:48 4.3 °C 1.8 °C 1020.5 hPa SSE 9.7 km/h 12.9 km/h 84% 0 mm 26 W/m2
14:54 4.1 °C 1.8 °C 1020.2 hPa SE 11.3 km/h 11.3 km/h 85% 3.05 mm 37 W/m2
15:00 4.1 °C 1.9 °C 1020.2 hPa SW 8 km/h 8 km/h 86% 1.52 mm 35 W/m2
15:06 4.2 °C 2.2 °C 1019.9 hPa SE 9.7 km/h 19.3 km/h 87% 1.02 mm 39 W/m2
15:12 4.2 °C 2.1 °C 1020.2 hPa SSE 12.9 km/h 12.9 km/h 86% 0 mm 25 W/m2
15:18 4.2 °C 1.9 °C 1020.2 hPa SSE 11.3 km/h 16.1 km/h 85% 0 mm 16 W/m2
15:24 4.3 °C 2 °C 1020.2 hPa SW 12.9 km/h 14.5 km/h 85% 0 mm 25 W/m2
15:30 4.3 °C 2.1 °C 1020.2 hPa SSE 11.3 km/h 11.3 km/h 85% 0 mm 21 W/m2
15:36 4.3 °C 2.1 °C 1019.9 hPa SE 9.7 km/h 11.3 km/h 85% 0 mm 19 W/m2
15:42 4.3 °C 2.1 °C 1019.9 hPa SE 11.3 km/h 12.9 km/h 85% 0 mm 18 W/m2
15:48 4.3 °C 2.1 °C 1019.5 hPa SE 9.7 km/h 12.9 km/h 85% 0 mm 32 W/m2
15:54 4.3 °C 2.1 °C 1019.5 hPa SSE 9.7 km/h 11.3 km/h 85% 0 mm 30 W/m2
16:00 4.3 °C 2.1 °C 1019.9 hPa SSE 8 km/h 9.7 km/h 85% 0 mm 21 W/m2
16:06 4.3 °C 2.2 °C 1019.5 hPa SE 6.4 km/h 9.7 km/h 86% 0 mm 18 W/m2
16:12 4.3 °C 2.2 °C 1019.2 hPa South 4.8 km/h 6.4 km/h 86% 0 mm 11 W/m2
16:18 4.4 °C 2.3 °C 1019.2 hPa South 4.8 km/h 9.7 km/h 86% 0 mm 14 W/m2
16:24 4.4 °C 2.3 °C 1019.2 hPa SE 6.4 km/h 6.4 km/h 86% 0 mm 14 W/m2
16:30 4.5 °C 2.3 °C 1018.8 hPa ESE 4.8 km/h 8 km/h 86% 0 mm 19 W/m2
16:36 4.6 °C 2.3 °C 1018.8 hPa SE 6.4 km/h 8 km/h 85% 0 mm 12 W/m2
16:42 4.7 °C 2.3 °C 1018.5 hPa SSE 6.4 km/h 6.4 km/h 85% 0 mm 9 W/m2
16:48 4.8 °C 2.3 °C 1018.8 hPa SSE 4.8 km/h 6.4 km/h 84% 0 mm 5 W/m2
16:54 4.8 °C 2.5 °C 1018.5 hPa SE 4.8 km/h 6.4 km/h 85% 0 mm 7 W/m2
17:00 4.8 °C 2.5 °C 1018.5 hPa ESE 4.8 km/h 4.8 km/h 85% 1.52 mm 7 W/m2
17:06 4.8 °C 2.6 °C 1018.2 hPa ESE 3.2 km/h 4.8 km/h 86% 1.52 mm 0 W/m2
17:12 4.6 °C 2.6 °C 1018.2 hPa ESE 1.6 km/h 3.2 km/h 87% 1.27 mm 0 W/m2
17:18 4.6 °C 2.6 °C 1018.2 hPa ESE 1.6 km/h 3.2 km/h 87% 0 mm 0 W/m2
17:24 4.5 °C 2.7 °C 1018.2 hPa ESE 1.6 km/h 3.2 km/h 88% 0 mm 0 W/m2
17:30 4.4 °C 2.6 °C 1018.5 hPa ESE 1.6 km/h 4.8 km/h 88% 0 mm 0 W/m2
17:36 4.4 °C 2.7 °C 1018.5 hPa Calm   4.8 km/h 89% 0 mm 0 W/m2
17:42 4.3 °C 2.6 °C 1018.5 hPa Calm   1.6 km/h 89% 0 mm 0 W/m2
17:48 4.3 °C 2.8 °C 1018.2 hPa ESE 1.6 km/h 3.2 km/h 90% 0 mm 0 W/m2
17:54 4.4 °C 2.9 °C 1018.5 hPa ESE 1.6 km/h 1.6 km/h 90% 0 mm 0 W/m2
18:00 4.4 °C 2.9 °C 1018.2 hPa Calm   3.2 km/h 90% 0 mm 0 W/m2
18:06 4.5 °C 3 °C 1018.2 hPa SE 1.6 km/h 3.2 km/h 90% 0 mm 0 W/m2
18:12 4.6 °C 3.1 °C 1018.2 hPa SE 1.6 km/h 3.2 km/h 90% 0 mm 0 W/m2
18:18 4.7 °C 3.3 °C 1018.2 hPa SE 1.6 km/h 4.8 km/h 91% 0 mm 0 W/m2
18:24 4.7 °C 3.4 °C 1018.2 hPa SE 1.6 km/h 4.8 km/h 91% 0 mm 0 W/m2
18:30 4.8 °C 3.4 °C 1018.2 hPa Calm   3.2 km/h 91% 0 mm 0 W/m2
18:36 5 °C 3.7 °C 1018.2 hPa SE 1.6 km/h 3.2 km/h 91% 0 mm 0 W/m2
18:42 5.2 °C 3.9 °C 1018.2 hPa SSE 1.6 km/h 3.2 km/h 91% 0 mm 0 W/m2
18:48 5.2 °C 3.9 °C 1018.2 hPa Calm   3.2 km/h 91% 0 mm 0 W/m2
18:54 5.1 °C 3.7 °C 1017.8 hPa Calm   1.6 km/h 91% 0 mm 0 W/m2
19:00 5.4 °C 4.1 °C 1017.8 hPa SSE 1.6 km/h 1.6 km/h 91% 0 mm 0 W/m2
19:06 5.4 °C 4.1 °C 1017.8 hPa SSW 1.6 km/h 4.8 km/h 91% 0 mm 0 W/m2
19:12 6.2 °C 5 °C 1017.8 hPa SSW 1.6 km/h 3.2 km/h 92% 0 mm 0 W/m2
19:18 5.6 °C 4.2 °C 1018.2 hPa SSW 1.6 km/h 3.2 km/h 91% 0 mm 0 W/m2
19:24 5.3 °C 4 °C 1017.5 hPa Calm   1.6 km/h 91% 0 mm 0 W/m2
19:30 5.3 °C 3.9 °C 1017.8 hPa Calm     91% 0 mm 0 W/m2
19:36 5.2 °C 3.8 °C 1017.8 hPa Calm   1.6 km/h 91% 0 mm 0 W/m2
19:42 5.3 °C 3.9 °C 1017.8 hPa Calm   3.2 km/h 91% 0 mm 0 W/m2
19:48 5.6 °C 4.3 °C 1017.5 hPa Calm   3.2 km/h 91% 0 mm 0 W/m2
19:54 5.7 °C 4.4 °C 1017.5 hPa Calm   3.2 km/h 91% 0 mm 0 W/m2
20:00 6.5 °C 5.3 °C 1017.8 hPa SSW 1.6 km/h 4.8 km/h 92% 0 mm 0 W/m2
20:06 7.2 °C 5.9 °C 1017.8 hPa SE 3.2 km/h 4.8 km/h 92% 0 mm 0 W/m2
20:12 7.4 °C 6.1 °C 1017.5 hPa South 3.2 km/h 3.2 km/h 91% 0 mm 0 W/m2
20:18 7.5 °C 6.1 °C 1017.5 hPa SSE 1.6 km/h 4.8 km/h 91% 0 mm 0 W/m2
20:24 7.6 °C 6.1 °C 1017.5 hPa South 3.2 km/h 4.8 km/h 90% 0 mm 0 W/m2
20:30 7.7 °C 6 °C 1017.5 hPa South 3.2 km/h 3.2 km/h 89% 0 mm 0 W/m2
20:36 7.7 °C 6 °C 1017.5 hPa South 3.2 km/h 4.8 km/h 89% 0 mm 0 W/m2
20:42 8 °C 6.3 °C 1017.5 hPa SSW 3.2 km/h 4.8 km/h 89% 0 mm 0 W/m2
20:48 8.3 °C 6.4 °C 1017.5 hPa SSW 3.2 km/h 6.4 km/h 88% 0 mm 0 W/m2
20:54 8.4 °C 6.6 °C 1017.5 hPa SSW 4.8 km/h 11.3 km/h 88% 0 mm 0 W/m2
21:00 8.6 °C 6.5 °C 1017.5 hPa SW 4.8 km/h 4.8 km/h 87% 0 mm 0 W/m2
21:06 8.7 °C 6.4 °C 1017.5 hPa SSW 3.2 km/h 11.3 km/h 86% 0 mm 0 W/m2
21:12 8.8 °C 6.6 °C 1017.2 hPa SW 6.4 km/h 8 km/h 86% 0 mm 0 W/m2
21:18 8.8 °C 6.4 °C 1017.2 hPa SW 4.8 km/h 8 km/h 85% 0 mm 0 W/m2
21:24 8.8 °C 6.4 °C 1017.2 hPa SW 6.4 km/h 11.3 km/h 85% 0 mm 0 W/m2
21:30 8.8 °C 6.4 °C 1017.2 hPa SSW 6.4 km/h 8 km/h 85% 0 mm 0 W/m2
21:36 8.8 °C 6.4 °C 1017.2 hPa SSW 4.8 km/h 8 km/h 85% 0 mm 0 W/m2
21:42 8.8 °C 6.4 °C 1017.5 hPa SSW 3.2 km/h 4.8 km/h 85% 0 mm 0 W/m2
21:48 8.9 °C 6.5 °C 1017.5 hPa SSW 4.8 km/h 6.4 km/h 85% 0 mm 0 W/m2
21:54 8.9 °C 6.5 °C 1017.5 hPa SW 4.8 km/h 4.8 km/h 85% 0 mm 0 W/m2
22:00 8.8 °C 6.4 °C 1017.5 hPa South 3.2 km/h 4.8 km/h 85% 0 mm 0 W/m2
22:06 8.9 °C 6.5 °C 1017.5 hPa SW 4.8 km/h 6.4 km/h 85% 0 mm 0 W/m2
22:12 8.9 °C 6.5 °C 1017.5 hPa West 4.8 km/h 4.8 km/h 85% 0 mm 0 W/m2
22:18 8.9 °C 6.3 °C 1017.5 hPa WSW 4.8 km/h 4.8 km/h 84% 0 mm 0 W/m2
22:24 8.8 °C 6.4 °C 1017.8 hPa WSW 3.2 km/h 4.8 km/h 85% 0 mm 0 W/m2
22:30 8.7 °C 6.3 °C 1018.2 hPa WSW 1.6 km/h 1.6 km/h 85% 0 mm 0 W/m2
22:36 8.5 °C 6.3 °C 1018.2 hPa NW 1.6 km/h 4.8 km/h 86% 0 mm 0 W/m2
22:42 8.3 °C 6.2 °C 1018.2 hPa NW 3.2 km/h 4.8 km/h 87% 0 mm 0 W/m2
22:48 8 °C 5.9 °C 1018.5 hPa NNW 3.2 km/h 4.8 km/h 87% 0 mm 0 W/m2
22:54 7.7 °C 5.8 °C 1018.5 hPa NW 6.4 km/h 8 km/h 88% 0 mm 0 W/m2
23:00 7.4 °C 5.7 °C 1018.5 hPa NW 4.8 km/h 4.8 km/h 89% 0 mm 0 W/m2
23:06 7.2 °C 5.5 °C 1018.5 hPa NW 3.2 km/h 4.8 km/h 89% 0 mm 0 W/m2
23:12 7 °C 5.4 °C 1018.5 hPa NW 3.2 km/h 4.8 km/h 90% 0 mm 0 W/m2
23:18 6.9 °C 5.4 °C 1018.5 hPa NW 3.2 km/h 4.8 km/h 90% 0 mm 0 W/m2
23:24 6.8 °C 5.3 °C 1018.8 hPa NW 1.6 km/h 3.2 km/h 90% 0 mm 0 W/m2
23:30 6.7 °C 5.3 °C 1018.8 hPa NW 3.2 km/h 3.2 km/h 91% 0 mm 0 W/m2
23:36 6.7 °C 5.3 °C 1018.8 hPa NW 1.6 km/h 3.2 km/h 91% 0 mm 0 W/m2
23:42 6.6 °C 5.2 °C 1019.2 hPa Calm   1.6 km/h 91% 0 mm 0 W/m2
23:48 6.6 °C 5.2 °C 1019.2 hPa NW 1.6 km/h 3.2 km/h 91% 0 mm 0 W/m2
23:54 6.6 °C 5.4 °C 1019.2 hPa WSW 3.2 km/h 4.8 km/h 92% 0 mm 0 W/m2
Country Meadow, Clay, NY, USA
Compliments of Weather Underground - 2 mb